Waf_motion — 4RBK — position and weather

sailwx.info

Track history (hours):
 
Tides and Currents Weather Stations Pressure Air Temp Water Temp Dewpoint Dewpoint Depression Visibility Wind Speed Wind Dir Waves Ship Positions

Waf_motion

Last reported at 2015-Mar-17 00:30 UTC. Time now 2015-Mar-29 20:47 UTC.
Position N 32°16' W 011°41'.
Warning: this ship's position is 12 days out of date.

Length 140 m; draft 7.3 m.

Type: Ship (hazmat cat A). MMSI: 417222324.

Date/timePositionNaut miles runAvg speedWind from/ knotsBaromVisibWave heightAir tempDewpointWater temp
2015-Mar-17 00:30N 32°16' W 011°41'32112.8
2015-Mar-15 23:24N 37°26' W 010°00'1513.4
2015-Mar-15 22:19N 37°41' W 009°60'1013.2
2015-Mar-15 21:33N 37°51' W 010°00'1313.2
2015-Mar-15 20:32N 38°04' W 010°00'1313.3
2015-Mar-15 19:33N 38°17' W 009°60'1313.3
2015-Mar-15 18:32N 38°30' W 010°03'1413.0
2015-Mar-15 17:25N 38°45' W 010°07'360 9.5
2015-Mar-14 03:33N 43°38' W 005°30'1211.8
2015-Mar-14 02:32N 43°35' W 005°14'1512.1
2015-Mar-14 01:18N 43°35' W 004°54'82 9.4
2015-Mar-13 16:33N 43°20' W 003°02'0 0.0
2015-Mar-13 07:21N 43°20' W 003°02'0 0.0
2015-Mar-13 06:33N 43°20' W 003°02'0 0.0
2015-Mar-13 05:33N 43°20' W 003°02'0 0.0
2015-Mar-13 04:33N 43°20' W 003°02'0 0.0
2015-Mar-13 03:33N 43°20' W 003°02'0 0.0
2015-Mar-13 02:33N 43°20' W 003°02'0 0.0
2015-Mar-13 01:33N 43°20' W 003°02'0 0.0
2015-Mar-13 00:33N 43°20' W 003°02'3 3.3
2015-Mar-12 23:33N 43°23' W 003°05'391 8.7
2015-Mar-11 02:29N 49°42' W 000°46'1313.4
2015-Mar-11 01:33N 49°36' W 000°30'1212.5
2015-Mar-11 00:33N 49°31' W 000°12'1212.3
2015-Mar-10 23:33N 49°26' E 000°06'1010.3
2015-Mar-10 22:33N 49°26' E 000°21'11 8.1
2015-Mar-10 21:12N 49°26' E 000°38'  
2015-Mar-08 11:20N 49°27' E 000°33'7 9.6
2015-Mar-08 10:33N 49°26' E 000°22'1313.2
2015-Mar-08 09:33N 49°27' E 000°01'9 8.8
2015-Mar-08 08:34N 49°31' W 000°11'1 1.2
2015-Mar-08 07:33N 49°30' W 000°13'9 8.6
2015-Mar-08 06:33N 49°34' W 000°25'1413.8
2015-Mar-08 05:33N 49°48' W 000°26'1211.9
2015-Mar-08 04:32N 49°60' W 000°31'1010.4
2015-Mar-08 03:32N 50°08' W 000°23'7712.6
2015-Mar-07 21:26N 50°53' E 001°16'1416.5
2015-Mar-07 20:33N 51°03' E 001°31'1616.4
2015-Mar-07 19:33N 51°16' E 001°49'1313.3
2015-Mar-07 18:33N 51°25' E 002°04'1312.6
2015-Mar-07 17:33N 51°22' E 002°24'1312.7
2015-Mar-07 16:33N 51°23' E 002°44'1212.1
2015-Mar-07 15:32N 51°24' E 003°04'1212.0
2015-Mar-07 14:33N 51°25' E 003°23'10 9.9
2015-Mar-07 13:34N 51°26' E 003°38'10 9.7
2015-Mar-07 12:33N 51°21' E 003°51'8 7.9
2015-Mar-07 11:34N 51°25' E 004°02'9 8.5
2015-Mar-07 10:33N 51°21' E 004°15'2 1.6
2015-Mar-07 09:34N 51°21' E 004°17'0 0.0
2015-Mar-07 08:34N 51°21' E 004°17'4 3.8
2015-Mar-07 07:33N 51°17' E 004°20'1 1.3
2015-Mar-07 06:33N 51°16' E 004°21'0 0.0
2015-Mar-07 05:30N 51°16' E 004°21'0 0.0
2015-Mar-07 04:33N 51°16' E 004°21'0 0.0
2015-Mar-07 03:30N 51°16' E 004°21'0 0.0
2015-Mar-07 02:33N 51°16' E 004°21'0 0.0
2015-Mar-07 01:33N 51°16' E 004°21'0 0.0
2015-Mar-07 00:33N 51°16' E 004°21'  
Track history (hours):
 
Tides and Currents Weather Stations Pressure Air Temp Water Temp Dewpoint Dewpoint Depression Visibility Wind Speed Wind Dir Waves Ship Positions

Waf_motion

Last reported at 2015-Mar-17 00:30 UTC. Time now 2015-Mar-29 20:47 UTC.
Position N 32°16' W 011°41'.
Warning: this ship's position is 12 days out of date.

Length 140 m; draft 7.3 m.

Type: Ship (hazmat cat A). MMSI: 417222324.

Date/timePositionNaut miles runAvg speedWind from/ knotsBaromVisibWave heightAir tempDewpointWater temp
2015-Mar-17 00:30N 32°16' W 011°41'32112.8
2015-Mar-15 23:24N 37°26' W 010°00'1513.4
2015-Mar-15 22:19N 37°41' W 009°60'1013.2
2015-Mar-15 21:33N 37°51' W 010°00'1313.2
2015-Mar-15 20:32N 38°04' W 010°00'1313.3
2015-Mar-15 19:33N 38°17' W 009°60'1313.3
2015-Mar-15 18:32N 38°30' W 010°03'1413.0
2015-Mar-15 17:25N 38°45' W 010°07'360 9.5
2015-Mar-14 03:33N 43°38' W 005°30'1211.8
2015-Mar-14 02:32N 43°35' W 005°14'1512.1
2015-Mar-14 01:18N 43°35' W 004°54'82 9.4
2015-Mar-13 16:33N 43°20' W 003°02'0 0.0
2015-Mar-13 07:21N 43°20' W 003°02'0 0.0
2015-Mar-13 06:33N 43°20' W 003°02'0 0.0
2015-Mar-13 05:33N 43°20' W 003°02'0 0.0
2015-Mar-13 04:33N 43°20' W 003°02'0 0.0
2015-Mar-13 03:33N 43°20' W 003°02'0 0.0
2015-Mar-13 02:33N 43°20' W 003°02'0 0.0
2015-Mar-13 01:33N 43°20' W 003°02'0 0.0
2015-Mar-13 00:33N 43°20' W 003°02'3 3.3
2015-Mar-12 23:33N 43°23' W 003°05'391 8.7
2015-Mar-11 02:29N 49°42' W 000°46'1313.4
2015-Mar-11 01:33N 49°36' W 000°30'1212.5
2015-Mar-11 00:33N 49°31' W 000°12'1212.3
2015-Mar-10 23:33N 49°26' E 000°06'1010.3
2015-Mar-10 22:33N 49°26' E 000°21'11 8.1
2015-Mar-10 21:12N 49°26' E 000°38'  
2015-Mar-08 11:20N 49°27' E 000°33'7 9.6
2015-Mar-08 10:33N 49°26' E 000°22'1313.2
2015-Mar-08 09:33N 49°27' E 000°01'9 8.8
2015-Mar-08 08:34N 49°31' W 000°11'1 1.2
2015-Mar-08 07:33N 49°30' W 000°13'9 8.6
2015-Mar-08 06:33N 49°34' W 000°25'1413.8
2015-Mar-08 05:33N 49°48' W 000°26'1211.9
2015-Mar-08 04:32N 49°60' W 000°31'1010.4
2015-Mar-08 03:32N 50°08' W 000°23'7712.6
2015-Mar-07 21:26N 50°53' E 001°16'1416.5
2015-Mar-07 20:33N 51°03' E 001°31'1616.4
2015-Mar-07 19:33N 51°16' E 001°49'1313.3
2015-Mar-07 18:33N 51°25' E 002°04'1312.6
2015-Mar-07 17:33N 51°22' E 002°24'1312.7
2015-Mar-07 16:33N 51°23' E 002°44'1212.1
2015-Mar-07 15:32N 51°24' E 003°04'1212.0
2015-Mar-07 14:33N 51°25' E 003°23'10 9.9
2015-Mar-07 13:34N 51°26' E 003°38'10 9.7
2015-Mar-07 12:33N 51°21' E 003°51'8 7.9
2015-Mar-07 11:34N 51°25' E 004°02'9 8.5
2015-Mar-07 10:33N 51°21' E 004°15'2 1.6
2015-Mar-07 09:34N 51°21' E 004°17'0 0.0
2015-Mar-07 08:34N 51°21' E 004°17'4 3.8
2015-Mar-07 07:33N 51°17' E 004°20'1 1.3
2015-Mar-07 06:33N 51°16' E 004°21'0 0.0
2015-Mar-07 05:30N 51°16' E 004°21'0 0.0
2015-Mar-07 04:33N 51°16' E 004°21'0 0.0
2015-Mar-07 03:30N 51°16' E 004°21'0 0.0
2015-Mar-07 02:33N 51°16' E 004°21'0 0.0
2015-Mar-07 01:33N 51°16' E 004°21'0 0.0
2015-Mar-07 00:33N 51°16' E 004°21'  

Dump ship's entire track history